Time;durP1;ratioP1;P1;durP2;ratioP2;P2;SDS_P1;SDS_P2;PMS_P1;PMS_P2;Temp;Humidity;BMP_temperature;BMP_pressure;BME280_temperature;BME280_humidity;BME280_pressure;Samples;Min_cycle;Max_cycle;Signal;HPM_P1;HPM_P2
2021/10/08 00:02:20;;;;;;;8.87;7.50;;;12.40;78.70;;;;;;5049925;28;20484;-81
2021/10/08 00:04:46;;;;;;;9.43;8.43;;;12.40;78.70;;;;;;5047893;28;20029;-81
2021/10/08 00:07:11;;;;;;;9.40;8.03;;;12.30;79.20;;;;;;5044862;28;20363;-81
2021/10/08 00:09:38;;;;;;;9.87;8.37;;;12.30;78.70;;;;;;5050378;28;20029;-81
2021/10/08 00:12:04;;;;;;;11.10;9.50;;;12.30;79.00;;;;;;5054458;28;20032;-81
2021/10/08 00:14:31;;;;;;;9.90;8.60;;;12.30;79.10;;;;;;5047611;28;20037;-81
2021/10/08 00:16:57;;;;;;;10.23;7.77;;;12.20;79.10;;;;;;5042196;28;20475;-81
2021/10/08 00:19:23;;;;;;;9.50;7.70;;;12.30;79.60;;;;;;5048931;28;20082;-81
2021/10/08 00:21:49;;;;;;;10.07;7.50;;;12.30;78.90;;;;;;5051252;28;20475;-81
2021/10/08 00:24:14;;;;;;;10.80;6.97;;;12.30;78.90;;;;;;5049945;28;20044;-81
2021/10/08 00:26:40;;;;;;;11.43;6.77;;;12.30;78.90;;;;;;5045265;28;20055;-81
2021/10/08 00:29:07;;;;;;;10.03;6.77;;;12.30;79.00;;;;;;5045794;28;20025;-81
2021/10/08 00:31:33;;;;;;;10.13;6.80;;;12.30;79.00;;;;;;5052207;28;20029;-81
2021/10/08 00:33:59;;;;;;;7.97;6.83;;;12.30;79.20;;;;;;5048682;28;20051;-81
2021/10/08 00:36:24;;;;;;;9.47;6.80;;;12.30;79.20;;;;;;5041178;28;20029;-81
2021/10/08 00:38:55;;;;;;;8.73;7.70;;;12.30;79.20;;;;;;5046264;28;20060;-81
2021/10/08 00:41:21;;;;;;;10.73;8.37;;;12.30;79.20;;;;;;5044263;28;20037;-81
2021/10/08 00:43:47;;;;;;;10.03;7.97;;;12.30;79.20;;;;;;5048803;28;20056;-81
2021/10/08 00:46:13;;;;;;;9.53;8.20;;;12.30;79.20;;;;;;5052855;28;20094;-81
2021/10/08 00:48:40;;;;;;;12.23;8.97;;;12.20;79.20;;;;;;5049784;28;20021;-81
2021/10/08 00:51:05;;;;;;;11.33;8.60;;;12.20;79.40;;;;;;5049713;28;20049;-81
2021/10/08 00:53:31;;;;;;;11.53;9.37;;;12.30;79.40;;;;;;5049974;28;20071;-81
2021/10/08 00:55:57;;;;;;;13.80;9.37;;;12.30;79.40;;;;;;5050485;28;20032;-81
2021/10/08 00:58:23;;;;;;;12.17;9.30;;;12.30;79.40;;;;;;5042983;28;20139;-81
2021/10/08 01:00:51;;;;;;;11.87;10.63;;;12.30;79.40;;;;;;5043144;28;20024;-81
2021/10/08 01:03:18;;;;;;;10.80;9.70;;;12.30;79.40;;;;;;5044226;28;20103;-81
2021/10/08 01:05:44;;;;;;;13.37;9.63;;;12.30;79.40;;;;;;5042924;28;20088;-81
2021/10/08 01:08:10;;;;;;;13.13;9.87;;;12.30;79.60;;;;;;5044655;28;20489;-81
2021/10/08 01:10:40;;;;;;;14.03;10.70;;;12.30;79.60;;;;;;5044647;28;20024;-81
2021/10/08 01:13:07;;;;;;;22.97;15.03;;;12.40;79.60;;;;;;5041952;28;20021;-81
2021/10/08 01:15:33;;;;;;;18.60;14.90;;;12.40;79.60;;;;;;5038511;28;21255;-81
2021/10/08 01:17:59;;;;;;;16.07;14.33;;;12.40;79.70;;;;;;5047342;28;20070;-81
2021/10/08 01:20:25;;;;;;;18.03;13.13;;;12.30;79.60;;;;;;5046770;28;20025;-81
2021/10/08 01:23:01;;;;;;;24.43;16.27;;;12.30;79.60;;;;;;5041114;28;20044;-81
2021/10/08 01:25:32;;;;;;;15.27;12.37;;;12.30;79.60;;;;;;5044300;28;20145;-81
2021/10/08 01:28:00;;;;;;;14.67;12.47;;;12.30;80.30;;;;;;5040973;28;20028;-81
2021/10/08 01:30:26;;;;;;;15.47;12.57;;;12.30;80.10;;;;;;5044927;28;20029;-81
2021/10/08 01:32:52;;;;;;;13.87;12.50;;;12.30;80.10;;;;;;5049291;28;20036;-81
2021/10/08 01:35:18;;;;;;;13.77;12.30;;;12.30;80.10;;;;;;5042980;28;20025;-81
2021/10/08 01:37:44;;;;;;;13.30;11.00;;;12.30;80.20;;;;;;5047649;28;20079;-81
2021/10/08 01:40:11;;;;;;;13.63;11.20;;;12.30;80.20;;;;;;5044661;28;20035;-81
2021/10/08 01:42:37;;;;;;;13.13;11.43;;;12.30;80.30;;;;;;5048391;28;20029;-81
2021/10/08 01:45:05;;;;;;;14.60;11.63;;;12.30;80.30;;;;;;5047423;28;20044;-81
2021/10/08 01:47:31;;;;;;;17.10;12.80;;;12.40;80.30;;;;;;5050841;28;20123;-81
2021/10/08 01:49:56;;;;;;;14.77;12.53;;;12.30;80.10;;;;;;5046312;28;20128;-80
2021/10/08 01:52:23;;;;;;;15.70;12.37;;;12.40;80.20;;;;;;5042898;28;20098;-81
2021/10/08 01:54:49;;;;;;;17.97;13.03;;;12.40;80.10;;;;;;5048348;28;20395;-80
2021/10/08 01:57:15;;;;;;;17.30;13.90;;;12.40;80.10;;;;;;5045682;28;20033;-81
2021/10/08 01:59:40;;;;;;;14.13;12.70;;;12.30;80.20;;;;;;5046658;28;20083;-81
2021/10/08 02:02:06;;;;;;;14.43;12.93;;;12.30;80.20;;;;;;5049597;28;20475;-81
2021/10/08 02:04:32;;;;;;;17.30;13.90;;;12.40;80.30;;;;;;5050206;28;20048;-80
2021/10/08 02:06:58;;;;;;;14.97;12.97;;;12.30;80.10;;;;;;5048653;28;20459;-80
2021/10/08 02:09:24;;;;;;;17.23;13.90;;;12.30;80.30;;;;;;5047512;28;20029;-82
2021/10/08 02:11:49;;;;;;;19.57;13.53;;;12.30;80.50;;;;;;5044898;28;20450;-81
2021/10/08 02:14:15;;;;;;;16.73;13.93;;;12.30;80.40;;;;;;5047477;28;20116;-81
2021/10/08 02:16:41;;;;;;;17.90;13.57;;;12.30;80.40;;;;;;5048072;28;20078;-81
2021/10/08 02:19:07;;;;;;;17.77;15.13;;;12.30;80.40;;;;;;5043375;28;20075;-81
2021/10/08 02:21:32;;;;;;;18.57;16.40;;;12.30;80.40;;;;;;5048823;28;20044;-81
2021/10/08 02:23:58;;;;;;;20.27;15.73;;;12.30;80.30;;;;;;5051201;28;20088;-81
2021/10/08 02:26:24;;;;;;;22.07;15.90;;;12.30;80.50;;;;;;5043080;28;20036;-81
2021/10/08 02:28:50;;;;;;;16.87;14.60;;;12.30;80.70;;;;;;5044942;28;20223;-80
2021/10/08 02:31:16;;;;;;;10.53;9.40;;;12.30;80.60;;;;;;5036050;28;20021;-81
2021/10/08 02:33:42;;;;;;;10.97;7.60;;;12.30;80.60;;;;;;5044255;28;20022;-81
2021/10/08 02:36:08;;;;;;;9.30;7.43;;;12.20;80.40;;;;;;5044150;28;20025;-80
2021/10/08 02:38:36;;;;;;;12.30;8.87;;;12.20;80.50;;;;;;5043297;28;20017;-80
2021/10/08 02:41:02;;;;;;;16.30;11.70;;;12.30;80.40;;;;;;5046742;28;20025;-81
2021/10/08 02:43:27;;;;;;;17.87;12.43;;;12.30;80.40;;;;;;5045920;28;20048;-81
2021/10/08 02:45:53;;;;;;;17.87;14.27;;;12.20;80.50;;;;;;5044594;28;20064;-81
2021/10/08 02:48:19;;;;;;;18.00;15.10;;;12.20;80.60;;;;;;5041744;28;20064;-80
2021/10/08 02:50:46;;;;;;;18.27;14.57;;;12.20;80.60;;;;;;5042773;28;20025;-81
2021/10/08 02:53:12;;;;;;;18.13;15.13;;;12.20;80.80;;;;;;5050334;28;20028;-81
2021/10/08 02:55:38;;;;;;;18.50;15.30;;;12.20;80.90;;;;;;5040329;28;20056;-81
2021/10/08 02:58:04;;;;;;;17.70;15.80;;;12.20;80.80;;;;;;5040490;28;20425;-81
2021/10/08 03:00:29;;;;;;;16.23;14.53;;;12.30;80.80;;;;;;5045038;28;20048;-81
2021/10/08 03:02:55;;;;;;;17.70;14.63;;;12.20;80.80;;;;;;5045569;28;20025;-81
2021/10/08 03:05:21;;;;;;;18.13;13.87;;;12.30;80.80;;;;;;5046845;28;20155;-81
2021/10/08 03:07:47;;;;;;;18.43;14.93;;;12.20;80.90;;;;;;5048166;28;20035;-81
2021/10/08 03:10:20;;;;;;;18.13;14.67;;;12.20;80.90;;;;;;5043175;28;20056;-81
2021/10/08 03:12:46;;;;;;;;;;;12.20;80.80;;;;;;5043108;28;20387;-81
2021/10/08 03:15:13;;;;;;;19.13;15.30;;;12.20;81.20;;;;;;5042717;28;19916;-80
2021/10/08 03:17:38;;;;;;;18.13;14.73;;;12.10;80.80;;;;;;5046644;28;20044;-81
2021/10/08 03:20:06;;;;;;;21.87;16.50;;;12.10;80.90;;;;;;5045307;28;20028;-80
2021/10/08 03:22:31;;;;;;;17.47;15.47;;;12.10;81.10;;;;;;5043198;28;20030;-80
2021/10/08 03:24:57;;;;;;;20.27;15.13;;;12.10;81.20;;;;;;5046283;28;20120;-81
2021/10/08 03:27:23;;;;;;;18.87;14.63;;;12.10;81.20;;;;;;5039262;28;20021;-80
2021/10/08 03:29:49;;;;;;;17.90;14.50;;;12.10;81.20;;;;;;5044462;28;20057;-80
2021/10/08 03:32:15;;;;;;;20.30;14.80;;;12.10;81.30;;;;;;5044420;28;20035;-81
2021/10/08 03:34:41;;;;;;;18.60;14.13;;;12.10;81.20;;;;;;5052482;28;20028;-81
2021/10/08 03:37:10;;;;;;;17.47;14.80;;;12.00;81.30;;;;;;5051085;28;20152;-80
2021/10/08 03:39:39;;;;;;;18.90;15.80;;;12.10;81.40;;;;;;5050444;28;20120;-81
2021/10/08 03:42:06;;;;;;;20.33;14.27;;;12.10;81.20;;;;;;5052714;28;20041;-81
2021/10/08 03:44:37;;;;;;;21.30;15.03;;;12.10;81.20;;;;;;5050251;28;20025;-81
2021/10/08 03:47:13;;;;;;;21.95;14.48;;;12.10;81.00;;;;;;5043794;28;20032;-81
2021/10/08 03:49:39;;;;;;;16.93;15.13;;;12.10;81.00;;;;;;5049338;28;20379;-81
2021/10/08 03:52:05;;;;;;;19.93;14.57;;;12.10;80.90;;;;;;5051209;28;21999;-81
2021/10/08 03:54:31;;;;;;;16.90;14.30;;;12.10;80.80;;;;;;5050030;28;20055;-81
2021/10/08 03:56:57;;;;;;;17.87;15.47;;;12.10;80.60;;;;;;5048616;28;20078;-81
2021/10/08 03:59:23;;;;;;;20.37;16.00;;;12.10;80.50;;;;;;5049809;28;20491;-81
2021/10/08 04:01:48;;;;;;;18.40;16.17;;;12.10;80.50;;;;;;5047208;28;20508;-81
2021/10/08 04:04:14;;;;;;;17.60;15.63;;;12.10;80.50;;;;;;5053117;28;20383;-81
2021/10/08 04:06:40;;;;;;;18.63;16.17;;;12.10;80.50;;;;;;5050841;28;20029;-80
2021/10/08 04:09:07;;;;;;;21.50;16.67;;;12.20;80.60;;;;;;5042542;28;20036;-81
2021/10/08 04:11:33;;;;;;;19.47;16.23;;;12.10;80.50;;;;;;5044895;28;20021;-80
2021/10/08 04:14:00;;;;;;;22.13;17.07;;;12.10;80.50;;;;;;5044809;28;20021;-81
2021/10/08 04:16:26;;;;;;;19.73;17.17;;;12.10;80.50;;;;;;5049983;28;20523;-81
2021/10/08 04:18:51;;;;;;;20.57;17.10;;;12.10;80.60;;;;;;5048225;28;20018;-80
2021/10/08 04:21:17;;;;;;;24.97;18.83;;;12.10;80.60;;;;;;5045320;28;20074;-81
2021/10/08 04:23:43;;;;;;;21.20;17.50;;;12.10;80.60;;;;;;5048256;28;20067;-81
2021/10/08 04:26:09;;;;;;;21.13;17.20;;;12.10;80.70;;;;;;5048231;28;20091;-81
2021/10/08 04:28:35;;;;;;;19.67;16.40;;;12.00;80.80;;;;;;5045014;28;20125;-81
2021/10/08 04:31:03;;;;;;;19.93;13.03;;;12.10;81.00;;;;;;5041644;28;20407;-81
2021/10/08 04:33:29;;;;;;;17.23;13.10;;;12.10;81.00;;;;;;5049574;28;20029;-81
2021/10/08 04:36:01;;;;;;;18.10;13.80;;;12.10;80.90;;;;;;5046017;28;20119;-81
2021/10/08 04:38:28;;;;;;;15.15;13.30;;;12.10;80.70;;;;;;5043086;28;20079;-81
2021/10/08 04:40:54;;;;;;;16.50;14.67;;;12.20;80.80;;;;;;5045278;28;20116;-81
2021/10/08 04:43:20;;;;;;;18.40;14.73;;;12.20;80.60;;;;;;5049236;28;20123;-81
2021/10/08 04:45:45;;;;;;;22.77;17.17;;;12.20;80.60;;;;;;5046881;28;20029;-80
2021/10/08 04:48:12;;;;;;;19.63;16.33;;;12.20;80.50;;;;;;5046444;28;20033;-80
2021/10/08 04:50:38;;;;;;;23.87;17.27;;;12.20;80.50;;;;;;5047173;28;20052;-81
2021/10/08 04:53:21;;;;;;;21.93;17.50;;;12.10;80.50;;;;;;5046079;28;20033;-81
2021/10/08 04:55:49;;;;;;;20.47;17.43;;;12.10;80.80;;;;;;5042908;28;20104;-81
2021/10/08 04:58:15;;;;;;;18.53;15.77;;;12.00;80.80;;;;;;5040901;28;20391;-81
2021/10/08 05:00:41;;;;;;;21.37;17.40;;;12.10;80.90;;;;;;5060913;28;20072;-81
2021/10/08 05:03:12;;;;;;;21.10;15.90;;;12.10;80.90;;;;;;5047026;28;20036;-81
2021/10/08 05:05:38;;;;;;;23.83;16.97;;;12.10;80.90;;;;;;5043537;28;20048;-81
2021/10/08 05:08:05;;;;;;;23.40;17.50;;;12.10;80.90;;;;;;5047308;28;20029;-81
2021/10/08 05:10:32;;;;;;;22.07;17.63;;;12.10;81.00;;;;;;5044610;28;20120;-80
2021/10/08 05:12:59;;;;;;;23.57;17.80;;;12.10;80.90;;;;;;5041918;28;20056;-81
2021/10/08 05:15:25;;;;;;;24.47;18.23;;;12.10;80.90;;;;;;5036201;28;20037;-81
2021/10/08 05:17:50;;;;;;;20.17;18.00;;;12.10;81.40;;;;;;5042256;28;20035;-81
2021/10/08 05:20:16;;;;;;;21.23;17.10;;;12.20;80.90;;;;;;5041865;28;20025;-81
2021/10/08 05:22:42;;;;;;;23.47;17.23;;;12.20;80.80;;;;;;5042041;28;20055;-81
2021/10/08 05:25:08;;;;;;;20.53;18.23;;;12.20;80.80;;;;;;5042438;28;20037;-81
2021/10/08 05:27:34;;;;;;;22.20;17.60;;;12.10;80.90;;;;;;5041319;28;20606;-80
2021/10/08 05:29:59;;;;;;;25.23;17.93;;;12.20;80.90;;;;;;5041065;28;20021;-81
2021/10/08 05:32:25;;;;;;;22.20;18.30;;;12.20;80.90;;;;;;5043004;28;20694;-81
2021/10/08 05:34:51;;;;;;;19.00;14.63;;;12.20;81.00;;;;;;5044011;28;20427;-81
2021/10/08 05:37:16;;;;;;;19.53;13.10;;;12.10;81.00;;;;;;5043760;28;20036;-81
2021/10/08 05:39:44;;;;;;;12.03;10.40;;;12.10;81.00;;;;;;5043303;28;20536;-81
2021/10/08 05:42:10;;;;;;;11.23;10.00;;;12.10;81.10;;;;;;5046064;28;21317;-81
2021/10/08 05:44:35;;;;;;;11.17;9.93;;;12.10;80.70;;;;;;5038810;28;20044;-81
2021/10/08 05:47:01;;;;;;;11.80;9.87;;;12.10;80.80;;;;;;5040470;28;20468;-81
2021/10/08 05:49:27;;;;;;;13.93;9.73;;;12.10;80.60;;;;;;5034336;28;20041;-81
2021/10/08 05:51:52;;;;;;;10.20;8.40;;;12.10;80.60;;;;;;5039398;28;20029;-81
2021/10/08 05:54:18;;;;;;;11.97;10.20;;;12.20;80.50;;;;;;5044153;28;20029;-80
2021/10/08 05:56:44;;;;;;;19.33;14.27;;;12.20;80.40;;;;;;5041245;28;20466;-80
2021/10/08 05:59:09;;;;;;;18.90;14.90;;;12.20;80.30;;;;;;5042577;28;20021;-81
2021/10/08 06:01:35;;;;;;;18.90;14.97;;;12.10;80.50;;;;;;5046125;28;20045;-81
2021/10/08 06:04:05;;;;;;;18.63;15.47;;;12.10;80.60;;;;;;5043620;28;20030;-81
2021/10/08 06:06:31;;;;;;;21.40;15.83;;;12.20;80.70;;;;;;5045047;28;20028;-81
2021/10/08 06:08:57;;;;;;;18.50;16.37;;;12.20;80.60;;;;;;5040886;28;20017;-81
2021/10/08 06:11:23;;;;;;;19.53;17.17;;;12.20;80.60;;;;;;5042830;28;20021;-81
2021/10/08 06:13:48;;;;;;;22.03;15.50;;;12.20;80.50;;;;;;5040245;28;20445;-81
2021/10/08 06:16:14;;;;;;;16.87;14.93;;;12.30;80.50;;;;;;5045009;28;20028;-81
2021/10/08 06:18:40;;;;;;;21.77;15.90;;;12.30;80.70;;;;;;5047137;28;20090;-81
2021/10/08 06:21:05;;;;;;;19.50;15.67;;;12.30;80.60;;;;;;5037716;28;20021;-80
2021/10/08 06:23:31;;;;;;;18.30;15.70;;;12.40;80.70;;;;;;5055593;28;20025;-81
2021/10/08 06:25:57;;;;;;;19.00;15.77;;;12.30;80.70;;;;;;5041891;28;20381;-81
2021/10/08 06:28:23;;;;;;;19.20;16.10;;;12.40;80.70;;;;;;5043733;28;20030;-81
2021/10/08 06:30:49;;;;;;;17.97;15.50;;;12.30;80.60;;;;;;5042531;28;20120;-80
2021/10/08 06:33:14;;;;;;;19.90;14.27;;;12.40;80.80;;;;;;5043255;28;20025;-81
2021/10/08 06:35:41;;;;;;;19.20;16.43;;;12.40;80.80;;;;;;5046963;28;20025;-81
2021/10/08 06:38:07;;;;;;;19.13;14.57;;;12.50;80.90;;;;;;5041952;28;20032;-81
2021/10/08 06:40:32;;;;;;;19.87;14.47;;;12.50;80.80;;;;;;5045035;28;20383;-81
2021/10/08 06:42:58;;;;;;;17.77;13.30;;;12.40;80.60;;;;;;5042451;28;20466;-80
2021/10/08 06:45:25;;;;;;;17.23;14.63;;;12.50;80.90;;;;;;5041739;28;20025;-81
2021/10/08 06:47:52;;;;;;;16.23;12.93;;;12.50;80.80;;;;;;5044721;28;20075;-81
2021/10/08 06:50:18;;;;;;;15.10;13.07;;;12.50;80.80;;;;;;5039746;28;20017;-81
2021/10/08 06:52:44;;;;;;;17.60;12.93;;;12.60;80.80;;;;;;5050953;28;20447;-81
2021/10/08 06:55:10;;;;;;;22.27;14.07;;;12.60;80.60;;;;;;5051746;28;20029;-81
2021/10/08 06:57:35;;;;;;;22.00;13.00;;;12.60;80.50;;;;;;5047124;28;20120;-81
2021/10/08 07:00:02;;;;;;;15.07;12.43;;;12.70;80.50;;;;;;5044173;28;20104;-80
2021/10/08 07:02:28;;;;;;;18.43;13.33;;;12.70;80.50;;;;;;5047397;28;20036;-80
2021/10/08 07:04:54;;;;;;;17.90;12.30;;;12.70;80.50;;;;;;5049517;28;20029;-81
2021/10/08 07:07:19;;;;;;;16.47;13.07;;;12.70;80.40;;;;;;5048741;28;20028;-80
2021/10/08 07:09:45;;;;;;;14.97;12.70;;;12.80;80.40;;;;;;5045799;28;20025;-80
2021/10/08 07:12:12;;;;;;;16.30;12.00;;;12.80;80.10;;;;;;5047327;28;20171;-81
2021/10/08 07:14:38;;;;;;;15.93;12.10;;;12.80;80.10;;;;;;5049028;28;20025;-81
2021/10/08 07:17:04;;;;;;;15.40;12.77;;;12.90;80.10;;;;;;5042613;28;20094;-81
2021/10/08 07:19:30;;;;;;;15.83;11.80;;;12.90;79.90;;;;;;5048987;28;20387;-80
2021/10/08 07:21:56;;;;;;;19.23;12.83;;;12.90;79.80;;;;;;5043874;28;20022;-81
2021/10/08 07:24:22;;;;;;;18.30;12.07;;;12.90;79.80;;;;;;5048408;28;20045;-81
2021/10/08 07:26:49;;;;;;;14.87;12.80;;;12.90;79.80;;;;;;5045327;28;20484;-80
2021/10/08 07:29:15;;;;;;;18.63;13.77;;;12.90;79.70;;;;;;5054167;28;20866;-81
2021/10/08 07:31:41;;;;;;;19.47;14.07;;;12.90;79.60;;;;;;5050090;28;20091;-81
2021/10/08 07:34:06;;;;;;;19.50;14.07;;;13.00;79.60;;;;;;5050204;28;20531;-81
2021/10/08 07:36:33;;;;;;;17.57;13.13;;;13.00;79.60;;;;;;5050649;28;20022;-80
2021/10/08 07:38:59;;;;;;;16.90;13.33;;;13.00;79.40;;;;;;5044682;28;20124;-81
2021/10/08 07:41:25;;;;;;;20.27;12.57;;;13.00;79.50;;;;;;5046098;28;20749;-81
2021/10/08 07:43:52;;;;;;;21.00;15.33;;;13.10;79.40;;;;;;5052246;28;20044;-81
2021/10/08 07:46:17;;;;;;;16.83;13.37;;;13.10;79.20;;;;;;5049194;28;20017;-81
2021/10/08 07:48:43;;;;;;;22.67;15.00;;;13.10;79.10;;;;;;5050974;28;20028;-81
2021/10/08 07:51:09;;;;;;;22.10;14.80;;;13.20;78.90;;;;;;5044661;28;20051;-81
2021/10/08 07:53:35;;;;;;;20.87;13.63;;;13.30;78.90;;;;;;5048128;28;20384;-81
2021/10/08 07:56:01;;;;;;;18.20;13.83;;;13.30;78.70;;;;;;5050387;28;20605;-81
2021/10/08 07:58:27;;;;;;;19.67;13.23;;;13.30;78.40;;;;;;5047371;28;20137;-81
2021/10/08 08:00:57;;;;;;;16.33;11.48;;;13.30;78.30;;;;;;5050874;28;20108;-80
2021/10/08 08:03:23;;;;;;;14.75;10.85;;;13.40;78.20;;;;;;5042063;28;20025;-81
2021/10/08 08:05:50;;;;;;;16.70;13.30;;;13.60;77.70;;;;;;5050404;28;20027;-81
2021/10/08 08:08:16;;;;;;;19.00;12.85;;;13.60;77.10;;;;;;5051324;28;20013;-82
2021/10/08 08:10:41;;;;;;;20.23;11.40;;;13.80;78.00;;;;;;5049495;28;20379;-81
2021/10/08 08:13:07;;;;;;;11.10;9.90;;;14.70;78.60;;;;;;5043642;28;20021;-81
2021/10/08 08:15:33;;;;;;;12.52;8.93;;;15.80;77.50;;;;;;5043486;28;20029;-81
2021/10/08 08:17:59;;;;;;;11.00;8.57;;;16.40;74.90;;;;;;5048404;28;20036;-81
2021/10/08 08:20:24;;;;;;;14.05;7.53;;;17.30;70.70;;;;;;5046930;28;20035;-81
2021/10/08 08:22:50;;;;;;;12.35;6.72;;;18.10;67.30;;;;;;5051843;28;20118;-81
2021/10/08 08:25:16;;;;;;;9.40;7.07;;;17.60;67.20;;;;;;5045381;28;20419;-81
2021/10/08 08:27:42;;;;;;;11.25;7.05;;;17.10;67.80;;;;;;5048627;28;20022;-81
2021/10/08 08:30:08;;;;;;;8.30;6.32;;;16.70;68.20;;;;;;5043993;28;20082;-80
2021/10/08 08:32:34;;;;;;;8.27;6.18;;;16.30;68.80;;;;;;5047878;28;20602;-80
2021/10/08 08:35:01;;;;;;;9.40;6.10;;;16.10;69.10;;;;;;5044251;28;20043;-81
2021/10/08 08:37:27;;;;;;;4.63;3.58;;;16.00;68.60;;;;;;5047882;28;20036;-81
2021/10/08 08:39:53;;;;;;;1.20;0.98;;;15.80;68.90;;;;;;5050273;28;20025;-80
2021/10/08 08:42:20;;;;;;;2.28;1.65;;;15.70;67.90;;;;;;5051093;28;20052;-81
2021/10/08 08:44:46;;;;;;;2.13;1.10;;;15.60;67.80;;;;;;5039216;28;20045;-81
2021/10/08 08:47:17;;;;;;;1.00;0.90;;;15.60;67.30;;;;;;5049523;28;20021;-81
2021/10/08 08:49:43;;;;;;;2.15;1.13;;;15.50;66.30;;;;;;5042812;28;20079;-80
2021/10/08 08:52:09;;;;;;;3.33;1.40;;;15.30;66.00;;;;;;5050638;28;20063;-81
2021/10/08 08:54:35;;;;;;;2.58;1.33;;;15.30;66.30;;;;;;5045886;28;20560;-80
2021/10/08 08:57:18;;;;;;;2.78;1.70;;;15.30;66.30;;;;;;5049098;28;20059;-81
2021/10/08 09:00:01;;;;;;;2.42;1.40;;;15.40;66.40;;;;;;5046885;28;20029;-81
2021/10/08 09:02:31;;;;;;;1.40;1.20;;;15.50;66.60;;;;;;5044161;28;20033;-80
2021/10/08 09:04:57;;;;;;;4.60;1.20;;;15.40;66.20;;;;;;5043030;28;20116;-81
2021/10/08 09:07:29;;;;;;;3.30;1.20;;;15.30;66.20;;;;;;5045092;28;20107;-81
2021/10/08 09:09:54;;;;;;;1.95;1.27;;;15.20;66.60;;;;;;5042471;28;20406;-81
2021/10/08 09:12:21;;;;;;;5.50;1.55;;;15.20;66.30;;;;;;5049813;28;20033;-81
2021/10/08 09:14:46;;;;;;;5.03;1.40;;;15.20;66.80;;;;;;5048440;28;20546;-81
2021/10/08 09:17:18;;;;;;;5.13;1.50;;;15.20;66.60;;;;;;5051226;28;20116;-81
2021/10/08 09:19:59;;;;;;;3.45;2.17;;;15.40;67.00;;;;;;5048972;28;20029;-80
2021/10/08 09:22:29;;;;;;;3.77;2.13;;;15.40;65.90;;;;;;5048602;28;20032;-81
2021/10/08 09:25:15;;;;;;;4.28;1.85;;;15.40;66.20;;;;;;5048744;28;20041;-81
2021/10/08 09:27:43;;;;;;;4.43;2.45;;;15.30;66.30;;;;;;5042401;28;20703;-81
2021/10/08 09:30:10;;;;;;;3.25;2.10;;;15.30;66.50;;;;;;5042061;28;20022;-81
2021/10/08 09:32:44;;;;;;;4.07;2.70;;;15.30;66.50;;;;;;5049253;28;20028;-81
2021/10/08 09:35:12;;;;;;;2.47;2.20;;;15.30;66.30;;;;;;5049028;28;20031;-81
2021/10/08 09:37:39;;;;;;;3.35;2.45;;;15.20;66.60;;;;;;5048068;28;20054;-81
2021/10/08 09:40:25;;;;;;;12.43;2.35;;;15.30;66.40;;;;;;5049041;28;20028;-81
2021/10/08 09:42:56;;;;;;;2.30;2.10;;;15.20;66.70;;;;;;5045085;28;20021;-82
2021/10/08 09:45:38;;;;;;;9.32;3.97;;;15.40;66.80;;;;;;5051090;28;20460;-81
2021/10/08 09:48:05;;;;;;;3.92;3.30;;;15.40;66.10;;;;;;5049283;28;20581;-81
2021/10/08 09:50:31;;;;;;;4.90;3.42;;;15.40;66.30;;;;;;5045893;28;20430;-80
2021/10/08 09:53:14;;;;;;;5.55;3.38;;;15.40;65.90;;;;;;5049901;28;20021;-81
2021/10/08 09:55:40;;;;;;;;;;;15.30;65.70;;;;;;5049186;28;20032;-81
2021/10/08 09:58:07;;;;;;;5.85;3.53;;;15.40;66.30;;;;;;5046008;28;19909;-81
2021/10/08 10:00:47;;;;;;;5.80;4.13;;;15.30;66.20;;;;;;5050808;28;20055;-81
2021/10/08 10:03:18;;;;;;;3.50;2.70;;;15.50;66.10;;;;;;5044709;28;20025;-81
2021/10/08 10:05:45;;;;;;;4.10;2.80;;;15.50;66.10;;;;;;5042800;28;20106;-80
2021/10/08 10:08:12;;;;;;;3.63;2.95;;;15.60;65.90;;;;;;5039118;28;20083;-81
2021/10/08 10:10:39;;;;;;;5.05;2.80;;;15.70;65.20;;;;;;5039522;28;20112;-81
2021/10/08 10:13:07;;;;;;;3.78;2.88;;;15.70;65.00;;;;;;5045090;28;20719;-81
2021/10/08 10:15:38;;;;;;;4.82;2.90;;;15.80;64.90;;;;;;5046779;28;20071;-81
2021/10/08 10:18:05;;;;;;;4.00;3.30;;;15.80;64.80;;;;;;5042596;28;20025;-82
2021/10/08 10:20:34;;;;;;;4.90;3.50;;;15.70;64.60;;;;;;5048088;28;20083;-82
2021/10/08 10:23:04;;;;;;;5.15;3.50;;;15.80;64.60;;;;;;5047857;28;20075;-81
2021/10/08 10:25:30;;;;;;;7.13;5.07;;;15.80;64.00;;;;;;5038345;28;20052;-82
2021/10/08 10:27:56;;;;;;;7.13;4.82;;;15.80;63.80;;;;;;5047807;28;20021;-81
2021/10/08 10:30:22;;;;;;;8.80;4.47;;;16.00;63.40;;;;;;5042541;28;20831;-82
2021/10/08 10:32:50;;;;;;;6.68;4.25;;;16.20;63.90;;;;;;5043254;28;20075;-81
2021/10/08 10:35:38;;;;;;;6.25;4.47;;;16.20;63.20;;;;;;5042440;28;20380;-82
2021/10/08 10:38:24;;;;;;;7.03;5.63;;;16.20;63.50;;;;;;5049328;28;20043;-81
2021/10/08 10:41:07;;;;;;;8.68;5.75;;;16.20;63.30;;;;;;5051153;28;20036;-82
2021/10/08 10:43:39;;;;;;;10.18;6.72;;;16.20;63.10;;;;;;5051559;28;20029;-81
2021/10/08 10:49:18;;;;;;;11.77;6.72;;;16.40;63.00;;;;;;5050138;28;20029;-81
2021/10/08 10:51:58;;;;;;;13.48;6.90;;;16.50;62.90;;;;;;5052238;28;20036;-82
2021/10/08 10:54:51;;;;;;;10.30;5.97;;;16.50;63.00;;;;;;5046403;28;20057;-82
2021/10/08 10:57:20;;;;;;;12.10;7.05;;;16.70;63.40;;;;;;5046377;28;20643;-81
2021/10/08 10:59:47;;;;;;;14.35;6.50;;;16.80;63.30;;;;;;5049946;28;20033;-82
2021/10/08 11:02:16;;;;;;;10.65;6.38;;;17.00;63.00;;;;;;5053504;28;20060;-81
2021/10/08 11:05:08;;;;;;;11.70;5.72;;;17.00;62.30;;;;;;5055852;28;20529;-82
2021/10/08 11:07:33;;;;;;;8.18;5.40;;;17.00;62.20;;;;;;5054101;28;20037;-83
2021/10/08 11:09:59;;;;;;;7.55;5.45;;;17.10;62.00;;;;;;5046178;28;20032;-82
2021/10/08 11:12:40;;;;;;;10.70;6.43;;;17.10;62.10;;;;;;5052900;28;20017;-82
2021/10/08 11:15:19;;;;;;;6.72;5.30;;;17.00;61.30;;;;;;5053151;28;20491;-82
2021/10/08 11:17:53;;;;;;;9.00;6.65;;;17.00;61.30;;;;;;5054401;28;20025;-82
2021/10/08 11:22:59;;;;;;;8.35;6.18;;;17.00;60.60;;;;;;5047867;28;20032;-82
2021/10/08 11:25:25;;;;;;;9.40;6.15;;;17.00;60.90;;;;;;5069210;28;20500;-82
2021/10/08 11:27:52;;;;;;;7.72;5.68;;;17.20;60.20;;;;;;5045227;28;20028;-82
2021/10/08 11:30:19;;;;;;;9.55;6.20;;;17.40;59.90;;;;;;5053564;28;20021;-82
2021/10/08 11:32:47;;;;;;;8.93;6.78;;;17.50;59.70;;;;;;5050600;28;20056;-82
2021/10/08 11:35:18;;;;;;;7.95;5.88;;;17.50;58.90;;;;;;5043235;28;20025;-82
2021/10/08 11:37:46;;;;;;;9.20;6.90;;;17.40;58.90;;;;;;5055037;28;20108;-82
2021/10/08 11:40:15;;;;;;;8.50;6.13;;;17.30;59.20;;;;;;5043317;28;20025;-83
2021/10/08 11:42:50;;;;;;;8.75;6.93;;;17.30;58.20;;;;;;5038539;28;20419;-82
2021/10/08 11:45:21;;;;;;;8.23;5.90;;;17.20;57.90;;;;;;5051956;28;20028;-82
2021/10/08 11:47:53;;;;;;;8.75;6.07;;;17.20;58.40;;;;;;5050881;28;20365;-82
2021/10/08 11:52:58;;;;;;;8.27;5.75;;;17.50;58.40;;;;;;5049892;28;20053;-82
2021/10/08 11:55:31;;;;;;;7.68;6.03;;;17.70;58.20;;;;;;5049955;28;20063;-82
2021/10/08 11:58:00;;;;;;;7.32;5.60;;;17.90;57.20;;;;;;5052870;28;20365;-82
2021/10/08 12:00:48;;;;;;;7.25;5.95;;;18.00;57.30;;;;;;5052221;28;20024;-82
2021/10/08 12:03:19;;;;;;;8.25;5.43;;;18.20;56.60;;;;;;5045663;28;20030;-81
2021/10/08 12:05:51;;;;;;;7.72;6.40;;;18.30;56.90;;;;;;5047978;28;20041;-82
2021/10/08 12:08:29;;;;;;;8.45;6.18;;;18.30;56.60;;;;;;5047809;28;20379;-82
2021/10/08 12:10:55;;;;;;;7.88;5.90;;;18.30;56.40;;;;;;5051035;28;20443;-82
2021/10/08 12:13:21;;;;;;;8.40;5.63;;;18.40;56.70;;;;;;5052964;28;20121;-81
2021/10/08 12:15:53;;;;;;;7.80;5.65;;;18.40;56.10;;;;;;5053488;28;20067;-82
2021/10/08 12:18:20;;;;;;;9.18;5.93;;;18.50;55.40;;;;;;5051452;28;20074;-83
2021/10/08 12:20:46;;;;;;;9.95;6.28;;;18.50;54.80;;;;;;5051547;28;20033;-81
2021/10/08 12:23:21;;;;;;;6.38;5.25;;;18.50;55.00;;;;;;5052407;28;20028;-82
2021/10/08 12:25:54;;;;;;;8.93;5.32;;;18.60;54.90;;;;;;5047900;28;20041;-82
2021/10/08 12:28:22;;;;;;;7.95;5.80;;;18.80;55.50;;;;;;5046397;28;20663;-81
2021/10/08 12:31:03;;;;;;;6.75;5.50;;;18.90;54.80;;;;;;5046278;28;20391;-82
2021/10/08 12:33:38;;;;;;;9.93;5.25;;;18.80;54.70;;;;;;5065973;28;20029;-81
2021/10/08 12:36:09;;;;;;;8.07;5.78;;;18.70;54.10;;;;;;5048152;28;20025;-82
2021/10/08 12:38:57;;;;;;;7.13;5.63;;;18.50;54.40;;;;;;5047177;28;20025;-82
2021/10/08 12:41:53;;;;;;;6.88;5.75;;;18.30;54.70;;;;;;5048432;28;20032;-82
2021/10/08 12:44:31;;;;;;;8.15;5.57;;;18.30;55.20;;;;;;5048378;28;20029;-82
2021/10/08 12:47:22;;;;;;;8.82;5.95;;;18.20;55.50;;;;;;5052559;28;20052;-82
2021/10/08 12:49:58;;;;;;;11.43;7.32;;;18.10;55.00;;;;;;5052761;28;20021;-82